createdAt,value
2018-07-10T00:02:11.727Z,8.33
2018-07-10T00:06:52.108Z,9.63
2018-07-10T00:10:36.369Z,10.03
2018-07-10T00:13:04.944Z,9.37
2018-07-10T00:15:33.492Z,7.67
2018-07-10T00:18:03.013Z,5.50
2018-07-10T00:20:31.510Z,4.97
2018-07-10T00:23:00.300Z,4.97
2018-07-10T00:25:28.958Z,4.07
2018-07-10T00:27:57.461Z,3.83
2018-07-10T00:30:30.402Z,4.10
2018-07-10T00:32:58.922Z,3.70
2018-07-10T00:35:28.146Z,2.97
2018-07-10T00:38:08.253Z,2.67
2018-07-10T00:40:39.040Z,3.00
2018-07-10T00:43:09.859Z,2.50
2018-07-10T00:45:38.417Z,4.13
2018-07-10T00:48:06.922Z,2.80
2018-07-10T00:50:38.700Z,2.80
2018-07-10T00:53:07.160Z,3.00
2018-07-10T00:55:35.686Z,3.67
2018-07-10T00:58:04.947Z,3.10
2018-07-10T01:00:35.355Z,2.93
2018-07-10T01:03:03.928Z,3.13
2018-07-10T01:05:32.782Z,3.03
2018-07-10T01:08:01.293Z,2.60
2018-07-10T01:10:30.304Z,2.60
2018-07-10T01:12:58.792Z,2.93
2018-07-10T01:15:27.683Z,2.80
2018-07-10T01:17:56.392Z,2.83
2018-07-10T01:20:25.063Z,2.93
2018-07-10T01:22:54.467Z,3.30
2018-07-10T01:25:23.548Z,3.40
2018-07-10T01:27:52.069Z,2.53
2018-07-10T01:30:20.527Z,3.00
2018-07-10T01:32:49.023Z,3.40
2018-07-10T01:35:17.488Z,3.13
2018-07-10T01:37:45.954Z,4.03
2018-07-10T01:40:14.503Z,3.10
2018-07-10T01:42:42.986Z,3.23
2018-07-10T01:45:11.387Z,3.67
2018-07-10T01:47:40.424Z,3.87
2018-07-10T01:50:11.100Z,4.07
2018-07-10T01:52:40.518Z,3.80
2018-07-10T01:55:09.003Z,3.80
2018-07-10T01:57:37.510Z,3.73
2018-07-10T02:00:05.941Z,3.80
2018-07-10T02:02:34.411Z,3.73
2018-07-10T02:05:03.935Z,3.83
2018-07-10T02:07:32.388Z,3.90
2018-07-10T02:10:01.160Z,3.43
2018-07-10T02:12:29.568Z,3.77
2018-07-10T02:14:58.043Z,4.00
2018-07-10T02:17:26.823Z,3.90
2018-07-10T02:19:55.312Z,3.50
2018-07-10T02:22:25.138Z,4.20
2018-07-10T02:24:53.608Z,4.07
2018-07-10T02:27:22.161Z,4.67
2018-07-10T02:29:50.682Z,4.60
2018-07-10T02:32:19.181Z,3.67
2018-07-10T02:34:47.636Z,4.60
2018-07-10T02:37:16.169Z,3.43
2018-07-10T02:39:45.211Z,4.10
2018-07-10T02:42:13.774Z,3.93
2018-07-10T02:44:42.304Z,3.83
2018-07-10T02:47:10.782Z,4.37
2018-07-10T02:49:40.624Z,5.37
2018-07-10T02:52:09.791Z,3.40
2018-07-10T02:54:43.044Z,5.53
2018-07-10T02:57:12.438Z,3.70
2018-07-10T02:59:45.315Z,3.30
2018-07-10T03:02:19.252Z,3.20
2018-07-10T03:04:48.461Z,4.20
2018-07-10T03:07:18.506Z,4.97
2018-07-10T03:09:48.147Z,3.57
2018-07-10T03:12:16.684Z,4.23
2018-07-10T03:14:45.223Z,3.90
2018-07-10T03:17:17.099Z,4.00
2018-07-10T03:19:45.636Z,4.60
2018-07-10T03:22:14.651Z,4.20
2018-07-10T03:24:43.202Z,5.13
2018-07-10T03:27:11.688Z,4.30
2018-07-10T03:29:40.236Z,4.57
2018-07-10T03:32:08.692Z,4.40
2018-07-10T03:34:37.829Z,4.80
2018-07-10T03:37:06.437Z,4.90
2018-07-10T03:39:36.976Z,5.23
2018-07-10T03:42:05.406Z,4.90
2018-07-10T03:44:33.876Z,5.30
2018-07-10T03:47:02.414Z,5.00
2018-07-10T03:49:30.906Z,5.17
2018-07-10T03:52:01.127Z,4.80
2018-07-10T03:54:30.509Z,4.47
2018-07-10T03:56:59.015Z,4.73
2018-07-10T03:59:28.613Z,4.50
2018-07-10T04:01:57.086Z,3.50
2018-07-10T04:04:25.610Z,3.57
2018-07-10T04:06:54.362Z,3.00
2018-07-10T04:09:22.918Z,3.00
2018-07-10T04:11:51.793Z,3.30
2018-07-10T04:14:23.443Z,3.00
2018-07-10T04:16:52.758Z,2.70
2018-07-10T04:19:21.947Z,2.80
2018-07-10T04:21:54.799Z,3.97
2018-07-10T04:24:23.752Z,2.70
2018-07-10T04:27:58.647Z,2.67
2018-07-10T04:30:39.984Z,2.90
2018-07-10T04:33:08.932Z,3.03
2018-07-10T04:35:37.410Z,2.33
2018-07-10T04:38:05.952Z,3.00
2018-07-10T04:40:35.553Z,2.87
2018-07-10T04:43:07.319Z,3.33
2018-07-10T04:45:42.783Z,3.60
2018-07-10T04:48:52.463Z,3.07
2018-07-10T04:51:27.502Z,3.30
2018-07-10T04:54:01.347Z,3.47
2018-07-10T04:56:30.258Z,3.40
2018-07-10T04:58:58.830Z,4.07
2018-07-10T05:01:33.808Z,3.30
2018-07-10T05:04:02.898Z,3.40
2018-07-10T05:06:34.512Z,2.30
2018-07-10T05:09:04.788Z,3.40
2018-07-10T05:11:35.591Z,3.50
2018-07-10T05:14:04.803Z,2.73
2018-07-10T05:16:34.441Z,2.87
2018-07-10T05:19:02.992Z,3.60
2018-07-10T05:21:31.473Z,3.77
2018-07-10T05:23:59.989Z,3.23
2018-07-10T05:26:28.495Z,3.30
2018-07-10T05:28:57.275Z,4.10
2018-07-10T05:31:25.875Z,3.70
2018-07-10T05:33:54.341Z,3.43
2018-07-10T05:36:24.195Z,3.13
2018-07-10T05:38:58.668Z,3.30
2018-07-10T05:41:27.141Z,3.30
2018-07-10T05:43:56.559Z,3.47
2018-07-10T05:46:26.650Z,3.23
2018-07-10T05:48:58.062Z,2.57
2018-07-10T05:51:28.633Z,2.50
2018-07-10T05:53:57.138Z,2.20
2018-07-10T05:56:26.096Z,2.83
2018-07-10T05:58:54.722Z,2.80
2018-07-10T06:01:23.312Z,2.77
2018-07-10T06:03:51.888Z,1.97
2018-07-10T06:06:20.436Z,3.03
2018-07-10T06:08:49.019Z,2.40
2018-07-10T06:11:18.696Z,2.43
2018-07-10T06:13:47.717Z,2.53
2018-07-10T06:16:17.017Z,2.20
2018-07-10T06:18:45.479Z,1.97
2018-07-10T06:21:14.041Z,2.27
2018-07-10T06:23:44.031Z,2.13
2018-07-10T06:26:13.140Z,2.10
2018-07-10T06:28:49.999Z,1.93
2018-07-10T06:31:21.520Z,2.10
2018-07-10T06:33:56.360Z,2.07
2018-07-10T06:36:28.653Z,2.10
2018-07-10T06:39:10.594Z,2.27
2018-07-10T06:41:44.358Z,2.10
2018-07-10T06:44:14.200Z,1.90
2018-07-10T06:46:45.207Z,3.63
2018-07-10T06:49:18.898Z,2.27
2018-07-10T06:51:47.972Z,1.90
2018-07-10T06:54:16.516Z,2.40
2018-07-10T06:56:47.781Z,1.63
2018-07-10T06:59:16.759Z,2.60
2018-07-10T07:01:46.016Z,1.67
2018-07-10T07:04:15.999Z,2.27
2018-07-10T07:06:44.519Z,1.60
2018-07-10T07:09:14.102Z,1.50
2018-07-10T07:11:42.566Z,2.23
2018-07-10T07:14:11.245Z,1.90
2018-07-10T07:16:39.839Z,2.27
2018-07-10T07:19:08.439Z,1.53
2018-07-10T07:21:38.068Z,1.93
2018-07-10T07:24:06.953Z,1.80
2018-07-10T07:26:37.605Z,2.10
2018-07-10T07:29:07.448Z,1.67
2018-07-10T07:31:37.259Z,1.33
2018-07-10T07:34:06.485Z,1.60
2018-07-10T07:36:35.071Z,1.43
2018-07-10T07:39:05.530Z,1.27
2018-07-10T07:41:34.187Z,1.37
2018-07-10T07:44:02.944Z,2.02
2018-07-10T07:46:31.300Z,1.60
2018-07-10T07:48:59.889Z,1.63
2018-07-10T07:51:28.347Z,1.40
2018-07-10T07:53:57.579Z,1.40
2018-07-10T07:56:26.707Z,1.02
2018-07-10T07:58:55.278Z,1.57
2018-07-10T08:01:23.803Z,1.65
2018-07-10T08:03:52.500Z,1.23
2018-07-10T08:06:22.019Z,1.83
2018-07-10T08:08:50.597Z,1.73
2018-07-10T08:11:19.135Z,1.70
2018-07-10T08:13:48.208Z,1.20
2018-07-10T08:16:16.928Z,1.70
2018-07-10T08:18:45.593Z,1.63
2018-07-10T08:21:14.169Z,1.40
2018-07-10T08:23:42.676Z,1.30
2018-07-10T08:26:12.118Z,1.63
2018-07-10T08:28:41.077Z,1.50
2018-07-10T08:31:09.599Z,1.40
2018-07-10T08:33:38.231Z,1.73
2018-07-10T08:36:06.666Z,1.87
2018-07-10T08:38:38.844Z,1.10
2018-07-10T08:41:07.867Z,1.70
2018-07-10T08:43:38.693Z,5.40
2018-07-10T08:46:07.166Z,2.10
2018-07-10T08:48:35.636Z,1.50
2018-07-10T08:51:04.180Z,1.53
2018-07-10T08:53:32.682Z,1.27
2018-07-10T08:56:01.184Z,7.40
2018-07-10T08:58:29.744Z,1.23
2018-07-10T09:00:58.316Z,1.40
2018-07-10T09:03:26.959Z,1.23
2018-07-10T09:05:55.480Z,1.33
2018-07-10T09:08:24.061Z,2.03
2018-07-10T09:10:54.329Z,1.40
2018-07-10T09:13:22.791Z,1.97
2018-07-10T09:15:51.305Z,2.07
2018-07-10T09:18:19.847Z,1.73
2018-07-10T09:20:52.258Z,1.43
2018-07-10T09:23:21.442Z,1.60
2018-07-10T09:25:53.385Z,1.10
2018-07-10T09:28:22.298Z,1.40
2018-07-10T09:30:51.143Z,1.40
2018-07-10T09:33:19.681Z,1.87
2018-07-10T09:35:48.210Z,1.50
2018-07-10T09:38:17.005Z,1.20
2018-07-10T09:40:45.539Z,1.30
2018-07-10T09:43:14.174Z,1.27
2018-07-10T09:45:42.812Z,1.53
2018-07-10T09:48:13.134Z,1.50
2018-07-10T09:50:41.994Z,1.40
2018-07-10T09:53:10.540Z,2.60
2018-07-10T09:55:39.013Z,2.53
2018-07-10T09:58:08.472Z,5.40
2018-07-10T10:00:42.880Z,2.30
2018-07-10T10:03:12.596Z,1.80
2018-07-10T10:05:43.466Z,1.87
2018-07-10T10:08:13.101Z,1.70
2018-07-10T10:10:41.310Z,2.00
2018-07-10T10:13:10.793Z,1.80
2018-07-10T10:15:39.718Z,1.63
2018-07-10T10:18:09.315Z,2.10
2018-07-10T10:20:39.501Z,1.80
2018-07-10T10:23:09.102Z,1.70
2018-07-10T10:25:39.659Z,2.67
2018-07-10T10:28:09.539Z,2.00
2018-07-10T10:30:39.316Z,2.27
2018-07-10T10:33:08.721Z,1.70
2018-07-10T10:35:39.638Z,1.93
2018-07-10T10:38:08.202Z,2.67
2018-07-10T10:40:39.506Z,2.07
2018-07-10T10:43:10.954Z,2.23
2018-07-10T10:45:45.455Z,1.93
2018-07-10T10:48:15.412Z,2.00
2018-07-10T10:50:49.298Z,2.10
2018-07-10T10:53:18.682Z,2.10
2018-07-10T10:55:50.578Z,2.10
2018-07-10T10:58:20.781Z,2.40
2018-07-10T11:00:53.368Z,2.37
2018-07-10T11:03:21.870Z,2.60
2018-07-10T11:05:53.677Z,2.10
2018-07-10T11:21:22.811Z,3.23
2018-07-10T11:23:56.942Z,3.53
2018-07-10T11:26:37.610Z,3.07
2018-07-10T11:29:11.363Z,3.30
2018-07-10T11:31:40.411Z,3.40
2018-07-10T11:34:19.163Z,4.40
2018-07-10T11:36:49.285Z,5.00
2018-07-10T11:39:18.188Z,4.60
2018-07-10T11:41:51.223Z,4.10
2018-07-10T11:44:20.539Z,4.40
2018-07-10T11:46:49.741Z,4.00
2018-07-10T11:49:18.373Z,3.97
2018-07-10T11:51:46.612Z,4.00
2018-07-10T11:54:17.460Z,3.73
2018-07-10T11:56:46.065Z,3.87
2018-07-10T11:59:14.725Z,3.90
2018-07-10T12:01:43.477Z,3.93
2018-07-10T12:04:12.128Z,4.13
2018-07-10T12:06:51.317Z,4.00
2018-07-10T12:09:21.276Z,3.53
2018-07-10T12:11:52.973Z,4.20
2018-07-10T12:14:21.502Z,3.57
2018-07-10T12:16:50.103Z,4.30
2018-07-10T12:19:18.716Z,3.90
2018-07-10T12:21:47.262Z,4.63
2018-07-10T12:24:16.032Z,4.80
2018-07-10T12:26:44.752Z,5.83
2018-07-10T12:29:13.354Z,6.40
2018-07-10T12:31:42.077Z,7.40
2018-07-10T12:34:10.639Z,6.23
2018-07-10T12:36:40.882Z,6.40
2018-07-10T12:39:09.455Z,6.13
2018-07-10T12:41:42.600Z,6.77
2018-07-10T12:44:11.108Z,6.70
2018-07-10T12:46:39.675Z,6.60
2018-07-10T12:49:08.267Z,6.60
2018-07-10T12:51:36.790Z,6.47
2018-07-10T12:54:05.459Z,7.50
2018-07-10T12:56:34.008Z,6.10
2018-07-10T12:59:02.599Z,7.30
2018-07-10T13:01:31.154Z,7.20
2018-07-10T13:03:59.956Z,7.67
2018-07-10T13:06:29.155Z,7.73
2018-07-10T13:08:57.775Z,7.10
2018-07-10T13:11:26.583Z,7.20
2018-07-10T13:13:55.276Z,8.70
2018-07-10T13:16:23.853Z,7.43
2018-07-10T13:18:52.337Z,8.57
2018-07-10T13:21:20.830Z,8.63
2018-07-10T13:23:49.284Z,8.07
2018-07-10T13:26:17.766Z,9.33
2018-07-10T13:28:46.207Z,7.20
2018-07-10T13:31:14.737Z,8.73
2018-07-10T13:33:43.372Z,7.87
2018-07-10T13:36:12.031Z,7.50
2018-07-10T13:38:40.922Z,8.17
2018-07-10T13:41:09.391Z,8.80
2018-07-10T13:43:38.129Z,7.90
2018-07-10T13:46:06.772Z,7.17
2018-07-10T13:48:35.350Z,7.50
2018-07-10T13:51:03.940Z,9.03
2018-07-10T13:53:32.499Z,7.70
2018-07-10T13:56:01.009Z,6.90
2018-07-10T13:58:31.292Z,8.20
2018-07-10T14:01:06.247Z,6.40
2018-07-10T14:03:35.226Z,7.07
2018-07-10T14:06:04.420Z,5.60
2018-07-10T14:08:33.809Z,6.90
2018-07-10T14:11:02.556Z,5.93
2018-07-10T14:13:31.048Z,6.03
2018-07-10T14:15:59.619Z,6.37
2018-07-10T14:18:28.707Z,6.00
2018-07-10T14:21:01.201Z,6.13
2018-07-10T14:36:29.115Z,7.17
2018-07-10T14:38:57.652Z,5.07
2018-07-10T14:41:27.892Z,7.07
2018-07-10T14:43:56.379Z,5.40
2018-07-10T14:46:26.193Z,5.67
2018-07-10T14:48:59.058Z,6.73
2018-07-10T14:51:59.352Z,7.00
2018-07-10T14:54:27.839Z,6.07
2018-07-10T14:56:57.133Z,6.37
2018-07-10T14:59:25.608Z,5.90
2018-07-10T15:01:54.209Z,5.37
2018-07-10T15:04:23.639Z,6.50
2018-07-10T15:06:52.094Z,5.57
2018-07-10T15:09:20.571Z,5.60
2018-07-10T15:11:49.080Z,8.20
2018-07-10T15:14:17.864Z,7.20
2018-07-10T15:16:51.820Z,6.80
2018-07-10T15:19:20.235Z,7.93
2018-07-10T15:21:48.710Z,6.67
2018-07-10T15:24:17.244Z,7.70
2018-07-10T15:26:45.778Z,7.63
2018-07-10T15:29:18.478Z,9.17
2018-07-10T15:31:46.994Z,8.93
2018-07-10T15:34:15.452Z,7.30
2018-07-10T15:36:43.662Z,6.93
2018-07-10T15:39:13.797Z,8.73
2018-07-10T15:41:42.492Z,11.20
2018-07-10T15:44:11.023Z,11.40
2018-07-10T15:46:39.459Z,11.53
2018-07-10T15:49:08.005Z,11.00
2018-07-10T15:51:36.540Z,13.10
2018-07-10T15:54:05.116Z,14.20
2018-07-10T15:56:33.639Z,14.60
2018-07-10T15:59:02.248Z,15.40
2018-07-10T16:01:30.934Z,15.73
2018-07-10T16:03:59.428Z,17.67
2018-07-10T16:06:30.004Z,16.00
2018-07-10T16:09:05.508Z,18.50
2018-07-10T16:11:35.456Z,17.20
2018-07-10T16:14:03.567Z,16.80
2018-07-10T16:16:32.636Z,17.60
2018-07-10T16:19:08.937Z,15.30
2018-07-10T16:21:43.610Z,15.90
2018-07-10T16:24:12.275Z,18.30
2018-07-10T16:26:40.848Z,16.57
2018-07-10T16:29:11.903Z,17.97
2018-07-10T16:31:41.973Z,18.03
2018-07-10T16:34:10.467Z,17.33
2018-07-10T16:36:38.978Z,17.13
2018-07-10T16:39:07.452Z,15.97
2018-07-10T16:41:41.451Z,17.37
2018-07-10T16:44:10.001Z,16.07
2018-07-10T16:46:39.965Z,16.23
2018-07-10T16:49:27.489Z,16.83
2018-07-10T16:52:34.955Z,13.93
2018-07-10T16:55:04.085Z,15.07
2018-07-10T16:57:32.597Z,14.83
2018-07-10T17:00:01.316Z,14.03
2018-07-10T17:02:29.849Z,16.50
2018-07-10T17:04:58.874Z,16.90
2018-07-10T17:07:27.425Z,14.83
2018-07-10T17:09:56.263Z,17.20
2018-07-10T17:12:24.904Z,16.10
2018-07-10T17:15:00.509Z,17.87
2018-07-10T17:17:29.212Z,18.17
2018-07-10T17:19:57.767Z,15.73
2018-07-10T17:22:26.656Z,18.40
2018-07-10T17:24:55.906Z,16.33
2018-07-10T17:27:35.991Z,18.70
2018-07-10T17:30:10.157Z,19.90
2018-07-10T17:32:38.716Z,19.43
2018-07-10T17:35:07.274Z,19.20
2018-07-10T17:37:43.940Z,19.20
2018-07-10T17:40:14.179Z,21.37
2018-07-10T17:42:42.964Z,20.83
2018-07-10T17:45:20.521Z,20.80
2018-07-10T17:47:50.672Z,22.10
2018-07-10T17:50:19.738Z,21.77
2018-07-10T17:52:49.447Z,22.40
2018-07-10T17:55:18.574Z,22.13
2018-07-10T17:57:47.675Z,21.17
2018-07-10T18:00:16.183Z,20.87
2018-07-10T18:02:44.930Z,20.43
2018-07-10T18:05:13.483Z,24.43
2018-07-10T18:07:43.279Z,23.87
2018-07-10T18:10:11.816Z,21.10
2018-07-10T18:12:40.359Z,23.37
2018-07-10T18:15:08.948Z,23.00
2018-07-10T18:17:37.510Z,22.67
2018-07-10T18:20:06.410Z,23.87
2018-07-10T18:22:35.762Z,23.80
2018-07-10T18:25:04.472Z,25.53
2018-07-10T18:27:32.935Z,23.20
2018-07-10T18:30:01.772Z,22.50
2018-07-10T18:32:30.715Z,21.53
2018-07-10T18:34:59.318Z,25.33
2018-07-10T18:37:28.564Z,23.20
2018-07-10T18:39:58.954Z,23.60
2018-07-10T18:42:28.070Z,21.87
2018-07-10T18:44:58.228Z,22.50
2018-07-10T18:47:27.107Z,20.43
2018-07-10T18:49:56.790Z,23.57
2018-07-10T18:52:30.503Z,22.40
2018-07-10T18:55:01.228Z,20.60
2018-07-10T18:57:42.259Z,21.80
2018-07-10T19:00:11.792Z,20.30
2018-07-10T19:06:23.575Z,19.70
2018-07-10T19:08:52.609Z,23.27
2018-07-10T19:11:26.674Z,21.37
2018-07-10T19:13:59.196Z,21.77
2018-07-10T19:16:29.432Z,20.07
2018-07-10T19:19:03.802Z,21.53
2018-07-10T19:21:38.006Z,24.40
2018-07-10T19:24:18.455Z,21.70
2018-07-10T19:26:50.171Z,22.40
2018-07-10T19:29:30.433Z,22.63
2018-07-10T19:32:02.387Z,23.57
2018-07-10T19:34:35.451Z,20.90
2018-07-10T19:37:19.276Z,21.13
2018-07-10T19:39:47.959Z,20.07
2018-07-10T19:42:19.663Z,21.90
2018-07-10T19:44:48.270Z,22.10
2018-07-10T19:47:17.155Z,20.57
2018-07-10T19:49:46.812Z,18.03
2018-07-10T19:52:15.315Z,18.20
2018-07-10T19:54:44.131Z,19.13
2018-07-10T19:57:16.753Z,16.63
2018-07-10T19:59:45.424Z,17.23
2018-07-10T20:02:15.550Z,17.87
2018-07-10T20:05:00.015Z,17.50
2018-07-10T20:07:48.268Z,19.23
2018-07-10T20:10:32.670Z,19.47
2018-07-10T20:13:11.569Z,20.00
2018-07-10T20:15:44.506Z,18.27
2018-07-10T20:18:20.079Z,20.60
2018-07-10T20:21:22.395Z,20.27
2018-07-10T20:24:20.235Z,19.40
2018-07-10T20:27:34.748Z,19.73
2018-07-10T20:31:07.957Z,20.13
2018-07-10T20:33:46.347Z,20.23
2018-07-10T20:36:21.680Z,19.93
2018-07-10T20:38:51.164Z,19.23
2018-07-10T20:41:21.071Z,19.13
2018-07-10T20:43:52.316Z,20.37
2018-07-10T20:46:21.651Z,19.33
2018-07-10T20:48:56.384Z,19.27
2018-07-10T20:51:31.377Z,17.03
2018-07-10T20:55:04.990Z,18.47
2018-07-10T20:58:10.157Z,20.07
2018-07-10T21:00:41.225Z,17.17
2018-07-10T21:04:19.601Z,19.63
2018-07-10T21:06:59.700Z,16.50
2018-07-10T21:11:43.911Z,16.20
2018-07-10T21:14:19.224Z,17.23
2018-07-10T21:16:57.614Z,14.73
2018-07-10T21:19:33.038Z,13.97
2018-07-10T21:22:12.486Z,11.77
2018-07-10T21:24:48.524Z,12.57
2018-07-10T21:27:29.780Z,10.47
2018-07-10T21:30:14.362Z,12.10
2018-07-10T21:32:50.936Z,9.90
2018-07-10T21:35:21.319Z,9.43
2018-07-10T21:40:08.908Z,8.73
2018-07-10T21:42:48.922Z,7.70
2018-07-10T21:45:27.193Z,6.90
2018-07-10T21:48:06.968Z,6.00
2018-07-10T21:50:40.369Z,7.70
2018-07-10T21:53:08.866Z,6.80
2018-07-10T21:55:37.394Z,6.00
2018-07-10T21:58:06.376Z,6.40
2018-07-10T22:01:51.956Z,7.23
2018-07-10T22:04:21.735Z,5.70
2018-07-10T22:06:55.607Z,6.30
2018-07-10T22:09:25.994Z,6.33
2018-07-10T22:11:55.113Z,7.07
2018-07-10T22:14:25.202Z,6.60
2018-07-10T22:16:54.007Z,7.10
2018-07-10T22:19:24.938Z,8.33
2018-07-10T22:21:54.236Z,6.90
2018-07-10T22:24:24.075Z,5.87
2018-07-10T22:26:52.584Z,6.80
2018-07-10T22:29:26.479Z,7.80
2018-07-10T22:31:58.391Z,6.03
2018-07-10T22:34:27.944Z,5.67
2018-07-10T22:36:57.096Z,6.07
2018-07-10T22:39:25.640Z,6.27
2018-07-10T22:41:54.791Z,5.60
2018-07-10T22:44:26.324Z,5.33
2018-07-10T22:46:56.962Z,6.40
2018-07-10T22:49:25.997Z,6.13
2018-07-10T22:51:56.147Z,6.10
2018-07-10T22:54:24.667Z,7.60
2018-07-10T22:56:53.193Z,6.47
2018-07-10T22:59:21.856Z,6.13
2018-07-10T23:01:50.344Z,7.43
2018-07-10T23:04:19.909Z,6.50
2018-07-10T23:06:48.388Z,5.80
2018-07-10T23:09:16.952Z,6.57
2018-07-10T23:11:45.534Z,8.00
2018-07-10T23:14:14.067Z,6.70
2018-07-10T23:16:42.564Z,6.97
2018-07-10T23:19:11.312Z,7.87
2018-07-10T23:21:41.288Z,6.33
2018-07-10T23:24:10.508Z,7.60
2018-07-10T23:26:41.822Z,7.30
2018-07-10T23:29:11.084Z,7.37
2018-07-10T23:31:42.172Z,7.87
2018-07-10T23:34:19.950Z,7.70
2018-07-10T23:36:58.185Z,9.40
2018-07-10T23:39:37.804Z,9.07
2018-07-10T23:42:11.555Z,8.33
2018-07-10T23:44:40.848Z,7.60
2018-07-10T23:47:17.433Z,9.70
2018-07-10T23:49:46.051Z,8.00
2018-07-10T23:53:30.228Z,9.57
2018-07-10T23:55:58.706Z,8.03
2018-07-10T23:58:28.243Z,10.13
